Akron Canton Regional Airport
KCAK : now visible

Airfield :











YOU CAN JOIN US ON...

 
LOGIN :

Register | Disclaimer

   EN    FR    IT 

 









Legend :    VFR   Marginal VFR   IFR   Intensive IFR   Very Intensive IFR
Visi :
Ceiling :
>= 8 km
>= 3000ft
5 to 8 km
1000 to 3000 ft
1500m to 5 km
500 to 1000 ft
800 to 1500m
200 to 500 ft
< 800m
< 200 ft
Symbols :   Thunderstorms  Fog  Heavy snow  Heavy precipitations  Wind > 20 kt






- Airport Elevation : 1228 ft
- IATA code : CAK


KCAK - Akron Canton Regional

CURRENT METAR :
  • 250851Z 19006KT 8SM BKN006 OVC013 07/04 A2983 RMK AO2 SLP105 T00670044 58004

EXPIRED METARs :
  • 250751Z 15005KT 6SM BR OVC005 07/05 A2983 RMK AO2 SLP107 T00670050
  • 250651Z 18006KT 6SM BR OVC005 07/05 A2984 RMK AO2 SLP110 T00670050
  • 250551Z 15006KT 6SM BR BKN005 OVC012 07/05 A2984 RMK AO2 SLP110 60011 T00670050 10078 20067 58012

TAF KCAK
Valid from the 25 at 06:00 until the 26 at 06:00 UTC


250620Z 2506/2606 14007KT 6SM -RA BR OVC015
TEMPO 2506/2510 5SM -RA BR OVC004
FM251000 17005KT 4SM -RASN BR OVC008
TEMPO 2510/2514 2SM -RASN BR OVC004
FM251600 23008KT P6SM OVC010
PROB30 2516/2518 4SM -RA OVC008
FM260000 22008KT 5SM -SHSN BR OVC008



MET'MAP, your aeronautical weather chart ! - Copyright ORBIFLY December 2007 - Disclaimer

ORBIFLY MET'MAP TEAM :

Programming & Development : Alexandra Zaïnal
Concept & original design : Baudouin d'Aumeries
Assistance for programming : Marc-Olivier Méhu
Technical & hardware support : Manuel Goepfert

Contact : metmap@orbifly.com




SOURCES & CREDITS :

   NOAA       Earth
Advisory